createdAt,value
2016-06-27T00:00:56.293Z,1005.71
2016-06-27T00:01:56.339Z,1005.74
2016-06-27T00:02:56.353Z,1005.71
2016-06-27T00:03:56.380Z,1005.7
2016-06-27T00:04:56.426Z,1005.75
2016-06-27T00:05:56.439Z,1005.77
2016-06-27T00:06:56.469Z,1005.77
2016-06-27T00:07:56.497Z,1005.78
2016-06-27T00:08:56.531Z,1005.74
2016-06-27T00:09:56.553Z,1005.77
2016-06-27T00:10:56.590Z,1005.68
2016-06-27T00:11:56.606Z,1005.67
2016-06-27T00:12:56.637Z,1005.66
2016-06-27T00:13:56.662Z,1005.62
2016-06-27T00:14:56.689Z,1005.6
2016-06-27T00:15:56.720Z,1005.6
2016-06-27T00:16:56.749Z,1005.63
2016-06-27T00:17:56.776Z,1005.66
2016-06-27T00:18:56.799Z,1005.64
2016-06-27T00:19:56.839Z,1005.65
2016-06-27T00:20:56.860Z,1005.68
2016-06-27T00:21:56.888Z,1005.69
2016-06-27T00:22:56.912Z,1005.69
2016-06-27T00:23:56.942Z,1005.62
2016-06-27T00:24:56.971Z,1005.59
2016-06-27T00:25:56.999Z,1005.6
2016-06-27T00:26:57.027Z,1005.55
2016-06-27T00:27:57.057Z,1005.55
2016-06-27T00:28:57.084Z,1005.53
2016-06-27T00:29:57.111Z,1005.59
2016-06-27T00:30:57.139Z,1005.55
2016-06-27T00:31:57.163Z,1005.59
2016-06-27T00:32:57.194Z,1005.6
2016-06-27T00:33:57.219Z,1005.56
2016-06-27T00:34:57.247Z,1005.54
2016-06-27T00:35:57.278Z,1005.51
2016-06-27T00:36:57.304Z,1005.55
2016-06-27T00:37:57.333Z,1005.52
2016-06-27T00:38:57.362Z,1005.56
2016-06-27T00:39:57.388Z,1005.52
2016-06-27T00:40:57.414Z,1005.52
2016-06-27T00:41:57.447Z,1005.53
2016-06-27T00:42:57.472Z,1005.54
2016-06-27T00:43:57.499Z,1005.48
2016-06-27T00:44:57.526Z,1005.48
2016-06-27T00:45:57.551Z,1005.48
2016-06-27T00:46:57.582Z,1005.49
2016-06-27T00:47:57.606Z,1005.46
2016-06-27T00:48:57.639Z,1005.47
2016-06-27T00:49:57.660Z,1005.46
2016-06-27T00:50:57.705Z,1005.49
2016-06-27T00:51:57.733Z,1005.51
2016-06-27T00:52:57.747Z,1005.54
2016-06-27T00:53:57.786Z,1005.56
2016-06-27T00:54:57.809Z,1005.56
2016-06-27T00:55:57.827Z,1005.58
2016-06-27T00:56:57.856Z,1005.53
2016-06-27T00:57:57.881Z,1005.53
2016-06-27T00:58:57.912Z,1005.51
2016-06-27T00:59:57.937Z,1005.49
2016-06-27T01:00:57.971Z,1005.49
2016-06-27T01:01:57.993Z,1005.51
2016-06-27T01:02:58.021Z,1005.54
2016-06-27T01:03:58.051Z,1005.51
2016-06-27T01:04:58.078Z,1005.59
2016-06-27T01:05:58.103Z,1005.53
2016-06-27T01:06:58.131Z,1005.57
2016-06-27T01:07:58.158Z,1005.54
2016-06-27T01:08:58.196Z,1005.54
2016-06-27T01:09:58.212Z,1005.61
2016-06-27T01:10:58.251Z,1005.61
2016-06-27T01:11:58.289Z,1005.62
2016-06-27T01:12:58.295Z,1005.69
2016-06-27T01:13:58.323Z,1005.71
2016-06-27T01:14:58.346Z,1005.71
2016-06-27T01:15:58.377Z,1005.75
2016-06-27T01:16:58.407Z,1005.71
2016-06-27T01:17:58.434Z,1005.77
2016-06-27T01:18:58.462Z,1005.76
2016-06-27T01:19:58.487Z,1005.79
2016-06-27T01:20:58.517Z,1005.77
2016-06-27T01:21:58.543Z,1005.77
2016-06-27T01:22:58.572Z,1005.78
2016-06-27T01:23:58.595Z,1005.72
2016-06-27T01:24:58.625Z,1005.77
2016-06-27T01:25:58.647Z,1005.76
2016-06-27T01:26:58.674Z,1005.81
2016-06-27T01:27:58.707Z,1005.79
2016-06-27T01:28:58.733Z,1005.8
2016-06-27T01:29:58.758Z,1005.81
2016-06-27T01:30:58.786Z,1005.83
2016-06-27T01:31:58.813Z,1005.8
2016-06-27T01:32:58.839Z,1005.85
2016-06-27T01:33:58.866Z,1005.83
2016-06-27T01:34:58.889Z,1005.81
2016-06-27T01:35:58.922Z,1005.87
2016-06-27T01:36:58.947Z,1005.82
2016-06-27T01:37:58.977Z,1005.87
2016-06-27T01:38:59.003Z,1005.85
2016-06-27T01:39:59.031Z,1005.84
2016-06-27T01:40:59.059Z,1005.87
2016-06-27T01:41:59.081Z,1005.85
2016-06-27T01:42:59.113Z,1005.84
2016-06-27T01:43:59.154Z,1005.83
2016-06-27T01:44:59.165Z,1005.83
2016-06-27T01:45:59.189Z,1005.8
2016-06-27T01:46:59.227Z,1005.83
2016-06-27T01:47:59.260Z,1005.89
2016-06-27T01:48:59.282Z,1005.89
2016-06-27T01:49:59.336Z,1005.89
2016-06-27T01:50:59.337Z,1005.87
2016-06-27T01:51:59.363Z,1005.9
2016-06-27T01:52:59.379Z,1005.9
2016-06-27T01:53:59.410Z,1005.91
2016-06-27T01:54:59.436Z,1005.94
2016-06-27T01:55:59.461Z,1005.94
2016-06-27T01:56:59.487Z,1005.93
2016-06-27T01:57:59.514Z,1005.92
2016-06-27T01:58:59.552Z,1005.9
2016-06-27T01:59:59.571Z,1005.87
2016-06-27T02:00:59.598Z,1005.87
2016-06-27T02:01:59.623Z,1005.93
2016-06-27T02:02:59.649Z,1005.96
2016-06-27T02:03:59.676Z,1005.93
2016-06-27T02:04:59.700Z,1005.96
2016-06-27T02:05:59.733Z,1005.92
2016-06-27T02:06:59.761Z,1005.91
2016-06-27T02:07:59.783Z,1005.91
2016-06-27T02:08:59.811Z,1005.91
2016-06-27T02:09:59.833Z,1005.92
2016-06-27T02:10:59.860Z,1005.92
2016-06-27T02:11:59.887Z,1005.9
2016-06-27T02:12:59.915Z,1005.9
2016-06-27T02:13:59.961Z,1005.91
2016-06-27T02:14:59.974Z,1005.92
2016-06-27T02:16:00.002Z,1005.91
2016-06-27T02:17:00.026Z,1005.94
2016-06-27T02:18:00.050Z,1005.96
2016-06-27T02:19:00.074Z,1005.96
2016-06-27T02:20:00.107Z,1005.92
2016-06-27T02:21:00.137Z,1005.94
2016-06-27T02:22:00.157Z,1005.95
2016-06-27T02:23:00.202Z,1005.97
2016-06-27T02:24:00.207Z,1006.03
2016-06-27T02:25:00.241Z,1006.02
2016-06-27T02:26:00.263Z,1006.05
2016-06-27T02:27:00.286Z,1006.03
2016-06-27T02:28:00.319Z,1006.06
2016-06-27T02:29:00.344Z,1006.1
2016-06-27T02:30:00.375Z,1006.08
2016-06-27T02:31:00.397Z,1006.13
2016-06-27T02:32:00.424Z,1006.11
2016-06-27T02:33:00.448Z,1006.1
2016-06-27T02:34:00.475Z,1006.09
2016-06-27T02:35:00.505Z,1006.11
2016-06-27T02:36:00.527Z,1006.09
2016-06-27T02:37:00.556Z,1006.12
2016-06-27T02:38:00.585Z,1006.11
2016-06-27T02:39:00.614Z,1006.12
2016-06-27T02:40:00.644Z,1006.11
2016-06-27T02:41:00.663Z,1006.11
2016-06-27T02:42:00.684Z,1006.08
2016-06-27T02:43:00.715Z,1006.06
2016-06-27T02:44:00.749Z,1006.03
2016-06-27T02:45:00.770Z,1005.99
2016-06-27T02:46:00.794Z,1005.95
2016-06-27T02:47:00.819Z,1005.94
2016-06-27T02:48:00.854Z,1005.92
2016-06-27T02:49:00.876Z,1005.91
2016-06-27T02:50:00.899Z,1005.95
2016-06-27T02:51:00.926Z,1005.96
2016-06-27T02:52:00.960Z,1005.97
2016-06-27T02:53:00.981Z,1005.95
2016-06-27T02:54:01.008Z,1005.96
2016-06-27T02:55:01.031Z,1005.97
2016-06-27T02:56:01.061Z,1005.98
2016-06-27T02:57:01.086Z,1005.97
2016-06-27T02:58:01.110Z,1005.97
2016-06-27T02:59:01.140Z,1006
2016-06-27T03:00:01.171Z,1006
2016-06-27T03:01:01.191Z,1005.96
2016-06-27T03:02:01.221Z,1006
2016-06-27T03:03:01.242Z,1005.99
2016-06-27T03:04:01.271Z,1006.03
2016-06-27T03:05:01.295Z,1006.01
2016-06-27T03:06:01.319Z,1006.04
2016-06-27T03:07:01.344Z,1006.07
2016-06-27T03:08:01.380Z,1006.03
2016-06-27T03:09:01.405Z,1006.04
2016-06-27T03:10:01.426Z,1006.07
2016-06-27T03:11:01.455Z,1006.08
2016-06-27T03:12:01.479Z,1006.11
2016-06-27T03:13:01.505Z,1006.11
2016-06-27T03:14:01.532Z,1006.16
2016-06-27T03:15:01.566Z,1006.16
2016-06-27T03:16:01.581Z,1006.14
2016-06-27T03:17:01.611Z,1006.13
2016-06-27T03:18:01.636Z,1006.16
2016-06-27T03:19:01.664Z,1006.12
2016-06-27T03:20:01.684Z,1006.08
2016-06-27T03:21:01.718Z,1006.06
2016-06-27T03:22:01.741Z,1006.07
2016-06-27T03:23:01.763Z,1006.05
2016-06-27T03:24:01.797Z,1006.08
2016-06-27T03:25:01.822Z,1006.1
2016-06-27T03:26:01.846Z,1006.1
2016-06-27T03:27:01.867Z,1006.1
2016-06-27T03:28:01.901Z,1006.13
2016-06-27T03:29:01.948Z,1006.15
2016-06-27T03:30:01.951Z,1006.17
2016-06-27T03:31:01.982Z,1006.15
2016-06-27T03:32:02.002Z,1006.17
2016-06-27T03:33:02.079Z,1006.18
2016-06-27T03:34:02.056Z,1006.21
2016-06-27T03:35:02.079Z,1006.23
2016-06-27T03:36:02.106Z,1006.24
2016-06-27T03:37:02.141Z,1006.25
2016-06-27T03:38:02.166Z,1006.26
2016-06-27T03:39:02.180Z,1006.25
2016-06-27T03:40:02.211Z,1006.32
2016-06-27T03:41:02.242Z,1006.35
2016-06-27T03:42:02.265Z,1006.39
2016-06-27T03:43:02.287Z,1006.41
2016-06-27T03:44:02.316Z,1006.44
2016-06-27T03:45:02.354Z,1006.46
2016-06-27T03:46:02.365Z,1006.47
2016-06-27T03:47:02.395Z,1006.43
2016-06-27T03:48:02.422Z,1006.44
2016-06-27T03:49:02.446Z,1006.47
2016-06-27T03:50:02.473Z,1006.42
2016-06-27T03:51:02.498Z,1006.42
2016-06-27T03:52:02.526Z,1006.39
2016-06-27T03:53:02.546Z,1006.43
2016-06-27T03:54:02.577Z,1006.43
2016-06-27T03:55:02.602Z,1006.46
2016-06-27T03:56:02.626Z,1006.49
2016-06-27T03:57:02.654Z,1006.5
2016-06-27T03:58:02.681Z,1006.52
2016-06-27T03:59:02.701Z,1006.51
2016-06-27T04:00:02.733Z,1006.49
2016-06-27T04:01:02.757Z,1006.5
2016-06-27T04:02:02.784Z,1006.51
2016-06-27T04:03:02.811Z,1006.51
2016-06-27T04:04:02.840Z,1006.54
2016-06-27T04:05:02.857Z,1006.54
2016-06-27T04:06:02.884Z,1006.52
2016-06-27T04:07:02.921Z,1006.56
2016-06-27T04:08:02.934Z,1006.61
2016-06-27T04:09:02.965Z,1006.65
2016-06-27T04:10:02.995Z,1006.67
2016-06-27T04:11:03.015Z,1006.63
2016-06-27T04:12:03.042Z,1006.62
2016-06-27T04:13:03.066Z,1006.67
2016-06-27T04:14:03.093Z,1006.68
2016-06-27T04:15:03.116Z,1006.68
2016-06-27T04:16:03.138Z,1006.68
2016-06-27T04:17:03.175Z,1006.66
2016-06-27T04:18:03.197Z,1006.69
2016-06-27T04:19:03.227Z,1006.75
2016-06-27T04:20:03.246Z,1006.71
2016-06-27T04:21:03.278Z,1006.7
2016-06-27T04:22:03.296Z,1006.67
2016-06-27T04:23:03.326Z,1006.73
2016-06-27T04:24:03.356Z,1006.74
2016-06-27T04:25:03.380Z,1006.74
2016-06-27T04:26:03.401Z,1006.71
2016-06-27T04:27:03.429Z,1006.76
2016-06-27T04:28:03.454Z,1006.72
2016-06-27T04:29:03.483Z,1006.75
2016-06-27T04:30:03.506Z,1006.75
2016-06-27T04:31:03.532Z,1006.81
2016-06-27T04:32:03.560Z,1006.81
2016-06-27T04:33:03.587Z,1006.8
2016-06-27T04:34:03.615Z,1006.78
2016-06-27T04:35:03.643Z,1006.77
2016-06-27T04:36:03.662Z,1006.76
2016-06-27T04:37:03.690Z,1006.73
2016-06-27T04:38:03.715Z,1006.81
2016-06-27T04:39:03.741Z,1006.79
2016-06-27T04:40:03.766Z,1006.78
2016-06-27T04:41:03.791Z,1006.82
2016-06-27T04:42:03.817Z,1006.75
2016-06-27T04:43:03.842Z,1006.75
2016-06-27T04:44:03.871Z,1006.8
2016-06-27T04:45:03.894Z,1006.77
2016-06-27T04:46:03.920Z,1006.79
2016-06-27T04:47:03.945Z,1006.8
2016-06-27T04:48:03.971Z,1006.77
2016-06-27T04:49:03.997Z,1006.8
2016-06-27T04:50:04.026Z,1006.78
2016-06-27T04:51:04.050Z,1006.8
2016-06-27T04:52:04.077Z,1006.8
2016-06-27T04:53:04.105Z,1006.82
2016-06-27T04:54:04.130Z,1006.81
2016-06-27T04:55:04.180Z,1006.83
2016-06-27T04:56:04.183Z,1006.88
2016-06-27T04:57:04.211Z,1006.88
2016-06-27T04:58:04.233Z,1006.89
2016-06-27T04:59:04.258Z,1006.88
2016-06-27T05:00:04.282Z,1006.88
2016-06-27T05:01:04.309Z,1006.91
2016-06-27T05:02:04.334Z,1006.92
2016-06-27T05:03:04.360Z,1006.89
2016-06-27T05:04:04.389Z,1006.86
2016-06-27T05:05:04.418Z,1006.91
2016-06-27T05:06:04.443Z,1006.95
2016-06-27T05:07:04.470Z,1006.91
2016-06-27T05:08:04.488Z,1006.93
2016-06-27T05:09:04.520Z,1006.99
2016-06-27T05:10:04.543Z,1006.98
2016-06-27T05:11:04.570Z,1007
2016-06-27T05:12:04.606Z,1007.03
2016-06-27T05:13:04.619Z,1006.97
2016-06-27T05:14:04.647Z,1007.06
2016-06-27T05:15:04.675Z,1007.02
2016-06-27T05:16:04.698Z,1007.05
2016-06-27T05:17:04.726Z,1006.96
2016-06-27T05:18:04.754Z,1006.98
2016-06-27T05:19:04.776Z,1006.96
2016-06-27T05:20:04.804Z,1006.98
2016-06-27T05:21:04.828Z,1006.96
2016-06-27T05:22:04.863Z,1006.97
2016-06-27T05:23:04.881Z,1006.98
2016-06-27T05:24:04.911Z,1006.94
2016-06-27T05:25:04.932Z,1006.99
2016-06-27T05:26:04.960Z,1006.96
2016-06-27T05:27:04.987Z,1006.99
2016-06-27T05:28:05.017Z,1006.97
2016-06-27T05:29:07.139Z,1006.94
2016-06-27T05:30:05.063Z,1006.94
2016-06-27T05:31:05.091Z,1006.94
2016-06-27T05:32:05.116Z,1006.93
2016-06-27T05:33:05.140Z,1006.92
2016-06-27T05:34:05.171Z,1006.88
2016-06-27T05:35:05.193Z,1006.9
2016-06-27T05:36:05.219Z,1006.88
2016-06-27T05:37:05.241Z,1006.92
2016-06-27T05:38:05.272Z,1006.92
2016-06-27T05:39:05.296Z,1006.94
2016-06-27T05:40:05.320Z,1006.92
2016-06-27T05:41:05.352Z,1006.95
2016-06-27T05:42:05.380Z,1006.92
2016-06-27T05:43:05.401Z,1006.98
2016-06-27T05:44:05.426Z,1006.94
2016-06-27T05:45:05.452Z,1006.94
2016-06-27T05:46:05.478Z,1006.95
2016-06-27T05:47:05.507Z,1006.94
2016-06-27T05:48:05.531Z,1006.95
2016-06-27T05:49:05.557Z,1006.96
2016-06-27T05:50:05.583Z,1006.96
2016-06-27T05:51:05.610Z,1006.96
2016-06-27T05:52:05.634Z,1006.96
2016-06-27T05:53:05.661Z,1006.99
2016-06-27T05:54:05.688Z,1007.02
2016-06-27T05:55:05.713Z,1007.06
2016-06-27T05:56:05.740Z,1007.11
2016-06-27T05:57:05.766Z,1007.1
2016-06-27T05:58:05.789Z,1007.16
2016-06-27T05:59:05.818Z,1007.14
2016-06-27T06:00:05.849Z,1007.13
2016-06-27T06:01:05.870Z,1007.13
2016-06-27T06:02:05.901Z,1007.13
2016-06-27T06:03:05.929Z,1007.17
2016-06-27T06:04:05.970Z,1007.11
2016-06-27T06:05:05.974Z,1007.17
2016-06-27T06:06:06.004Z,1007.17
2016-06-27T06:07:06.033Z,1007.19
2016-06-27T06:08:06.060Z,1007.22
2016-06-27T06:09:06.086Z,1007.26
2016-06-27T06:10:06.110Z,1007.22
2016-06-27T06:11:06.133Z,1007.24
2016-06-27T06:12:06.163Z,1007.21
2016-06-27T06:13:06.187Z,1007.28
2016-06-27T06:14:06.217Z,1007.28
2016-06-27T06:15:06.240Z,1007.3
2016-06-27T06:16:06.269Z,1007.32
2016-06-27T06:17:06.296Z,1007.3
2016-06-27T06:18:06.326Z,1007.25
2016-06-27T06:19:06.346Z,1007.35
2016-06-27T06:20:06.372Z,1007.3
2016-06-27T06:21:06.409Z,1007.34
2016-06-27T06:22:06.450Z,1007.31
2016-06-27T06:23:06.450Z,1007.29
2016-06-27T06:24:06.474Z,1007.33
2016-06-27T06:25:06.510Z,1007.34
2016-06-27T06:26:06.532Z,1007.33
2016-06-27T06:27:06.556Z,1007.33
2016-06-27T06:28:06.582Z,1007.34
2016-06-27T06:29:06.609Z,1007.4
2016-06-27T06:30:06.636Z,1007.42
2016-06-27T06:31:06.661Z,1007.42
2016-06-27T06:32:06.690Z,1007.45
2016-06-27T06:33:06.722Z,1007.42
2016-06-27T06:34:06.741Z,1007.44
2016-06-27T06:35:06.776Z,1007.4
2016-06-27T06:36:06.797Z,1007.5
2016-06-27T06:37:06.824Z,1007.47
2016-06-27T06:38:06.849Z,1007.47
2016-06-27T06:39:06.874Z,1007.48
2016-06-27T06:40:06.901Z,1007.49
2016-06-27T06:41:06.927Z,1007.48
2016-06-27T06:42:06.951Z,1007.48
2016-06-27T06:43:06.985Z,1007.49
2016-06-27T06:44:07.007Z,1007.5
2016-06-27T06:45:07.031Z,1007.53
2016-06-27T06:46:07.062Z,1007.52
2016-06-27T06:47:07.089Z,1007.53
2016-06-27T06:48:07.113Z,1007.52
2016-06-27T06:49:07.139Z,1007.54
2016-06-27T06:50:07.175Z,1007.57
2016-06-27T06:51:07.193Z,1007.54
2016-06-27T06:52:07.225Z,1007.56
2016-06-27T06:53:07.250Z,1007.57
2016-06-27T06:54:07.276Z,1007.58
2016-06-27T06:55:07.300Z,1007.56
2016-06-27T06:56:07.338Z,1007.57
2016-06-27T06:57:07.358Z,1007.56
2016-06-27T06:58:07.382Z,1007.55
2016-06-27T06:59:07.410Z,1007.53
2016-06-27T07:00:07.435Z,1007.55
2016-06-27T07:01:07.460Z,1007.54
2016-06-27T07:02:07.486Z,1007.56
2016-06-27T07:03:07.517Z,1007.53
2016-06-27T07:04:07.538Z,1007.54
2016-06-27T07:05:07.639Z,1007.53
2016-06-27T07:06:07.679Z,1007.57
2016-06-27T07:07:07.702Z,1007.55
2016-06-27T07:08:07.688Z,1007.56
2016-06-27T07:09:07.694Z,1007.54
2016-06-27T07:10:07.707Z,1007.54
2016-06-27T07:11:07.729Z,1007.54
2016-06-27T07:12:07.757Z,1007.53
2016-06-27T07:13:07.782Z,1007.57
2016-06-27T07:14:07.809Z,1007.51
2016-06-27T07:15:07.837Z,1007.54
2016-06-27T07:16:07.861Z,1007.54
2016-06-27T07:17:07.895Z,1007.55
2016-06-27T07:18:07.917Z,1007.54
2016-06-27T07:19:07.941Z,1007.54
2016-06-27T07:20:07.973Z,1007.54
2016-06-27T07:21:07.995Z,1007.51
2016-06-27T07:22:08.026Z,1007.52
2016-06-27T07:23:08.046Z,1007.56
2016-06-27T07:24:08.074Z,1007.57
2016-06-27T07:25:08.108Z,1007.59
2016-06-27T07:26:08.134Z,1007.56
2016-06-27T07:27:08.165Z,1007.59
2016-06-27T07:28:08.182Z,1007.59
2016-06-27T07:29:08.210Z,1007.61
2016-06-27T07:30:08.249Z,1007.57
2016-06-27T07:31:08.264Z,1007.64
2016-06-27T07:32:08.294Z,1007.6
2016-06-27T07:33:08.375Z,1007.63
2016-06-27T07:34:08.343Z,1007.64
2016-06-27T07:35:08.373Z,1007.66
2016-06-27T07:36:08.394Z,1007.61
2016-06-27T07:37:08.428Z,1007.64
2016-06-27T07:38:08.457Z,1007.65
2016-06-27T07:39:08.489Z,1007.68
2016-06-27T07:40:08.507Z,1007.72
2016-06-27T07:41:08.540Z,1007.7
2016-06-27T07:42:08.559Z,1007.72
2016-06-27T07:43:08.594Z,1007.68
2016-06-27T07:44:08.622Z,1007.71
2016-06-27T07:45:08.644Z,1007.69
2016-06-27T07:46:08.678Z,1007.69
2016-06-27T07:47:08.701Z,1007.69
2016-06-27T07:48:08.724Z,1007.67
2016-06-27T07:49:08.765Z,1007.69
2016-06-27T07:50:08.792Z,1007.62
2016-06-27T07:51:08.809Z,1007.67
2016-06-27T07:52:08.841Z,1007.66
2016-06-27T07:53:08.860Z,1007.69
2016-06-27T07:54:08.889Z,1007.59
2016-06-27T07:55:08.915Z,1007.62
2016-06-27T07:56:08.943Z,1007.61
2016-06-27T07:57:09.322Z,1007.61
2016-06-27T07:58:08.996Z,1007.62
2016-06-27T07:59:09.027Z,1007.61
2016-06-27T08:00:09.054Z,1007.62
2016-06-27T08:01:09.082Z,1007.59
2016-06-27T08:02:09.106Z,1007.58
2016-06-27T08:03:09.139Z,1007.62
2016-06-27T08:04:09.268Z,1007.61
2016-06-27T08:05:09.289Z,1007.6
2016-06-27T08:06:09.326Z,1007.6
2016-06-27T08:07:09.332Z,1007.54
2016-06-27T08:08:09.333Z,1007.55
2016-06-27T08:09:09.412Z,1007.54
2016-06-27T08:10:09.405Z,1007.51
2016-06-27T08:11:09.419Z,1007.49
2016-06-27T08:12:09.427Z,1007.49
2016-06-27T08:13:09.431Z,1007.49
2016-06-27T08:14:09.445Z,1007.43
2016-06-27T08:15:09.551Z,1007.39
2016-06-27T08:16:09.566Z,1007.44
2016-06-27T08:17:09.602Z,1007.39
2016-06-27T08:18:09.610Z,1007.4
2016-06-27T08:19:09.620Z,1007.33
2016-06-27T08:20:09.614Z,1007.36
2016-06-27T08:21:09.665Z,1007.29
2016-06-27T08:22:09.675Z,1007.27
2016-06-27T08:23:09.688Z,1007.26
2016-06-27T08:24:09.715Z,1007.31
2016-06-27T08:25:09.740Z,1007.28
2016-06-27T08:26:09.767Z,1007.26
2016-06-27T08:27:09.801Z,1007.29
2016-06-27T08:28:09.824Z,1007.22
2016-06-27T08:29:09.859Z,1007.27
2016-06-27T08:30:09.887Z,1007.3
2016-06-27T08:31:09.905Z,1007.25
2016-06-27T08:32:09.935Z,1007.28
2016-06-27T08:33:09.971Z,1007.25
2016-06-27T08:34:09.991Z,1007.23
2016-06-27T08:35:10.023Z,1007.17
2016-06-27T08:36:10.059Z,1007.21
2016-06-27T08:37:10.077Z,1007.22
2016-06-27T08:38:10.105Z,1007.2
2016-06-27T08:39:10.136Z,1007.25
2016-06-27T08:40:10.168Z,1007.25
2016-06-27T08:41:10.187Z,1007.24
2016-06-27T08:42:10.227Z,1007.31
2016-06-27T08:43:10.241Z,1007.28
2016-06-27T08:44:10.278Z,1007.3
2016-06-27T08:45:10.299Z,1007.33
2016-06-27T08:46:10.327Z,1007.3
2016-06-27T08:47:10.362Z,1007.31
2016-06-27T08:48:10.413Z,1007.29
2016-06-27T08:49:10.416Z,1007.33
2016-06-27T08:50:10.438Z,1007.36
2016-06-27T08:51:10.472Z,1007.36
2016-06-27T08:52:10.503Z,1007.39
2016-06-27T08:53:10.527Z,1007.4
2016-06-27T08:54:10.572Z,1007.37
2016-06-27T08:55:10.605Z,1007.41
2016-06-27T08:56:10.619Z,1007.38
2016-06-27T08:57:10.643Z,1007.38
2016-06-27T08:58:10.671Z,1007.37
2016-06-27T08:59:10.703Z,1007.35
2016-06-27T09:00:10.739Z,1007.35
2016-06-27T09:01:10.756Z,1007.34
2016-06-27T09:02:10.784Z,1007.4
2016-06-27T09:03:10.811Z,1007.38
2016-06-27T09:04:10.848Z,1007.34
2016-06-27T09:05:10.870Z,1007.31
2016-06-27T09:06:10.903Z,1007.3
2016-06-27T09:07:10.928Z,1007.32
2016-06-27T09:08:10.957Z,1007.3
2016-06-27T09:09:10.988Z,1007.27
2016-06-27T09:10:11.014Z,1007.31
2016-06-27T09:11:11.042Z,1007.3
2016-06-27T09:12:11.072Z,1007.28
2016-06-27T09:13:11.103Z,1007.29
2016-06-27T09:14:11.135Z,1007.32
2016-06-27T09:15:11.163Z,1007.29
2016-06-27T09:16:11.192Z,1007.34
2016-06-27T09:17:11.221Z,1007.31
2016-06-27T09:18:11.249Z,1007.3
2016-06-27T09:19:11.279Z,1007.35
2016-06-27T09:20:11.308Z,1007.37
2016-06-27T09:21:11.338Z,1007.35
2016-06-27T09:22:11.363Z,1007.34
2016-06-27T09:23:11.393Z,1007.27
2016-06-27T09:24:11.426Z,1007.3
2016-06-27T09:25:11.450Z,1007.26
2016-06-27T09:26:11.483Z,1007.3
2016-06-27T09:27:11.507Z,1007.3
2016-06-27T09:28:11.542Z,1007.28
2016-06-27T09:29:11.571Z,1007.28
2016-06-27T09:30:11.600Z,1007.32
2016-06-27T09:31:11.627Z,1007.32
2016-06-27T09:32:11.654Z,1007.27
2016-06-27T09:33:11.686Z,1007.3
2016-06-27T09:34:11.716Z,1007.24
2016-06-27T09:35:11.746Z,1007.23
2016-06-27T09:36:11.773Z,1007.24
2016-06-27T09:37:11.804Z,1007.22
2016-06-27T09:38:11.837Z,1007.19
2016-06-27T09:39:11.861Z,1007.18
2016-06-27T09:40:11.897Z,1007.17
2016-06-27T09:41:11.927Z,1007.15
2016-06-27T09:42:11.954Z,1007.14
2016-06-27T09:43:11.990Z,1007.14
2016-06-27T09:44:12.013Z,1007.18
2016-06-27T09:45:12.043Z,1007.16
2016-06-27T09:46:12.069Z,1007.19
2016-06-27T09:47:12.102Z,1007.2
2016-06-27T09:48:12.133Z,1007.17
2016-06-27T09:49:12.165Z,1007.18
2016-06-27T09:50:12.186Z,1007.16
2016-06-27T09:51:12.223Z,1007.14
2016-06-27T09:52:12.247Z,1007.16
2016-06-27T09:53:12.279Z,1007.15
2016-06-27T09:54:12.312Z,1007.13
2016-06-27T09:55:12.344Z,1007.18
2016-06-27T09:56:12.380Z,1007.16
2016-06-27T09:57:12.399Z,1007.19
2016-06-27T09:58:12.428Z,1007.13
2016-06-27T09:59:12.458Z,1007.15
2016-06-27T10:00:12.494Z,1007.14
2016-06-27T10:01:12.519Z,1007.14
2016-06-27T10:02:12.551Z,1007.12
2016-06-27T10:03:12.587Z,1007.11
2016-06-27T10:04:12.613Z,1007.14
2016-06-27T10:05:12.648Z,1007.09
2016-06-27T10:06:12.675Z,1007.13
2016-06-27T10:07:12.699Z,1007.06
2016-06-27T10:08:12.751Z,1007.15
2016-06-27T10:09:12.772Z,1007.08
2016-06-27T10:10:12.806Z,1007.06
2016-06-27T10:11:12.853Z,1007.04
2016-06-27T10:12:12.855Z,1007.06
2016-06-27T10:13:12.887Z,1007.05
2016-06-27T10:14:12.917Z,1007.05
2016-06-27T10:15:12.945Z,1007.07
2016-06-27T10:16:12.973Z,1007.06
2016-06-27T10:17:13.007Z,1007.04
2016-06-27T10:18:13.039Z,1007.02
2016-06-27T10:19:13.068Z,1007.05
2016-06-27T10:20:13.104Z,1007.08
2016-06-27T10:21:13.131Z,1007.04
2016-06-27T10:22:13.165Z,1007.01
2016-06-27T10:23:13.194Z,1007.03
2016-06-27T10:24:13.223Z,1007
2016-06-27T10:25:13.252Z,1007.02
2016-06-27T10:26:13.287Z,1007.01
2016-06-27T10:27:13.318Z,1006.96
2016-06-27T10:28:13.351Z,1006.97
2016-06-27T10:29:13.381Z,1007.04
2016-06-27T10:30:13.412Z,1006.99
2016-06-27T10:31:13.445Z,1007
2016-06-27T10:32:13.475Z,1007.03
2016-06-27T10:33:13.510Z,1007
2016-06-27T10:34:13.541Z,1007.01
2016-06-27T10:35:13.574Z,1006.99
2016-06-27T10:36:13.600Z,1007
2016-06-27T10:37:13.637Z,1006.99
2016-06-27T10:38:13.664Z,1007.03
2016-06-27T10:39:13.691Z,1007.01
2016-06-27T10:40:13.730Z,1007.02
2016-06-27T10:41:13.760Z,1007.02
2016-06-27T10:42:13.793Z,1007.01
2016-06-27T10:43:13.827Z,1007.02
2016-06-27T10:44:13.854Z,1007.05
2016-06-27T10:45:13.892Z,1007.06
2016-06-27T10:46:13.923Z,1007.06
2016-06-27T10:47:13.958Z,1007.07
2016-06-27T10:48:13.985Z,1007.04
2016-06-27T10:49:14.025Z,1007.02
2016-06-27T10:50:14.049Z,1007
2016-06-27T10:51:14.080Z,1007
2016-06-27T10:52:14.123Z,1006.94
2016-06-27T10:53:14.153Z,1006.98
2016-06-27T10:54:14.182Z,1006.97
2016-06-27T10:55:14.214Z,1006.91
2016-06-27T10:56:14.248Z,1006.91
2016-06-27T10:57:14.279Z,1006.94
2016-06-27T10:58:14.308Z,1006.83
2016-06-27T10:59:14.344Z,1006.9
2016-06-27T11:00:14.372Z,1006.83
2016-06-27T11:01:14.405Z,1006.83
2016-06-27T11:02:14.443Z,1006.81
2016-06-27T11:03:14.468Z,1006.83
2016-06-27T11:04:14.515Z,1006.84
2016-06-27T11:05:14.543Z,1006.75
2016-06-27T11:06:14.618Z,1006.77
2016-06-27T11:07:14.612Z,1006.8
2016-06-27T11:08:14.630Z,1006.79
2016-06-27T11:09:14.675Z,1006.75
2016-06-27T11:10:14.726Z,1006.8
2016-06-27T11:11:14.734Z,1006.76
2016-06-27T11:12:14.763Z,1006.74
2016-06-27T11:13:14.795Z,1006.69
2016-06-27T11:14:14.833Z,1006.71
2016-06-27T11:15:14.861Z,1006.71
2016-06-27T11:16:14.905Z,1006.71
2016-06-27T11:17:14.926Z,1006.67
2016-06-27T11:18:14.964Z,1006.73
2016-06-27T11:19:14.995Z,1006.76
2016-06-27T11:20:15.032Z,1006.77
2016-06-27T11:21:15.062Z,1006.74
2016-06-27T11:22:15.094Z,1006.73
2016-06-27T11:23:15.124Z,1006.75
2016-06-27T11:24:15.167Z,1006.73
2016-06-27T11:25:15.194Z,1006.72
2016-06-27T11:26:15.227Z,1006.76
2016-06-27T11:27:15.255Z,1006.75
2016-06-27T11:28:15.295Z,1006.77
2016-06-27T11:29:15.326Z,1006.76
2016-06-27T11:30:15.363Z,1006.7
2016-06-27T11:31:15.395Z,1006.7
2016-06-27T11:32:15.427Z,1006.76
2016-06-27T11:33:15.459Z,1006.74
2016-06-27T11:34:15.494Z,1006.69
2016-06-27T11:35:15.527Z,1006.71
2016-06-27T11:36:15.558Z,1006.71
2016-06-27T11:37:15.627Z,1006.67
2016-06-27T11:38:15.628Z,1006.68
2016-06-27T11:39:15.666Z,1006.67
2016-06-27T11:40:15.698Z,1006.67
2016-06-27T11:41:15.729Z,1006.62
2016-06-27T11:42:15.758Z,1006.56
2016-06-27T11:43:15.802Z,1006.56
2016-06-27T11:44:15.827Z,1006.6
2016-06-27T11:45:15.862Z,1006.58
2016-06-27T11:46:15.896Z,1006.56
2016-06-27T11:47:15.933Z,1006.51
2016-06-27T11:48:15.962Z,1006.51
2016-06-27T11:49:15.997Z,1006.5
2016-06-27T11:50:16.031Z,1006.48
2016-06-27T11:51:16.068Z,1006.47
2016-06-27T11:52:16.098Z,1006.48
2016-06-27T11:53:16.130Z,1006.47
2016-06-27T11:54:16.167Z,1006.49
2016-06-27T11:55:16.197Z,1006.47
2016-06-27T11:56:16.233Z,1006.43
2016-06-27T11:57:16.280Z,1006.45
2016-06-27T11:58:16.303Z,1006.41
2016-06-27T11:59:16.335Z,1006.47
2016-06-27T12:00:16.378Z,1006.49
2016-06-27T12:01:16.411Z,1006.53
2016-06-27T12:02:16.442Z,1006.48
2016-06-27T12:03:16.474Z,1006.49
2016-06-27T12:04:16.503Z,1006.48
2016-06-27T12:05:16.541Z,1006.44
2016-06-27T12:06:16.577Z,1006.48
2016-06-27T12:07:16.609Z,1006.44
2016-06-27T12:08:16.643Z,1006.43
2016-06-27T12:09:16.680Z,1006.36